Terminal Aerodrome Forecast
Issued by NWS

Home | Current Version | Previous Version | Text Only | Print | Product List | Glossary On
Versions: 1 2 3 4 5 6 7 8 9 10 11 12 13 14 15 16 17 18 19 20 21 22 23
000
FTUS44 KBMX 071251 AAA
TAFANB
TAF AMD
KANB 071251Z 0713/0812 00000KT P6SM SKC
     FM071400 22007KT P6SM SCT040 SCT250
     FM080100 00000KT P6SM SCT250=

USA.gov is the U.S. government's official web portal to all federal, state and local government web resources and services.